Station info - map view · info · telemetry · weather · raw · status · beacons · messages · bulletins · browse · moving · my account
Callsign, ship name or locator: Clear       
It is possible to search using wildcards (*?) after a prefix. Example: OH*
APRS station PA0GRI-9 - show graphs
Map loading...
Mic-E message: En route
Location: 52°04.05' N 6°04.85' E - locator JO32AB96QE - show map - static map
4.3 miles Southeast bearing 143° from Loenen, Gemeente Apeldoorn, Gelderland, Netherlands [?]
8.1 miles Southeast bearing 142° from Beekbergen, Gemeente Apeldoorn, Gelderland, Netherlands
54.6 miles East bearing 112° from Amsterdam, Gemeente Amsterdam, North Holland, Netherlands
68.8 miles East bearing 81° from Rotterdam, Gemeente Rotterdam, South Holland, Netherlands
Last position: 2017-05-18 07:11:08 EDT (10d 20h23m ago)
2017-05-18 13:11:08 CEST local time at Loenen, Netherlands [?]
Altitude: 66 ft
Course: 151°
Device: Kenwood: TM-D710 (rig)
Last path: PA0GRI-9>UR0TP5 via WIDE1-1,WIDE2-2,qAR,PE1MEW-10 (good)
Positions stored: 31601
Other SSIDs: PA0GRI PA0GRI-10 PA0GRI-8
Stations near current position of PA0GRI-9 - show more
callsign distance last heard - EDT      callsign distance last heard - EDT
PD1AIY86.8 yards 226°2017-05-25 17:38:59 PE9R-9198.7 yards 270°2017-05-23 05:39:18
PE1OPG-1243.8 yards 284°2017-05-19 14:58:21 PA0RLM-15245.9 yards 351°2017-05-25 01:11:23
PE1RJV-4297.6 yards 299°2017-05-25 05:27:52 PI2JUT311.3 yards 311°2017-05-29 03:29:15
PH3GAL-9434.8 yards 289°2017-05-24 11:38:36 PH3GAL446.1 yards 289°2017-05-24 15:29:43
PH3GAL-7452.7 yards 291°2017-05-27 17:47:42 PH3GAL-1452.7 yards 291°2017-05-29 03:15:35
PH4M-70.6 miles 334°2017-05-25 07:03:01 FW08532.2 miles 3°2017-05-20 08:13:31
PE1MHG-103.3 miles 338°2017-05-24 17:31:06 PA3GUU-84.4 miles 244°2017-05-26 06:09:31
PD0GHF-94.5 miles 187°2017-05-28 09:00:20 PD0NAH5.3 miles 37°2017-05-28 16:10:20
PD0NAH-95.3 miles 37°2017-05-25 13:51:57 PE1DH7.7 miles 166°2017-05-28 03:04:12
PE1DH-97.7 miles 166°2017-05-24 00:40:18 PD4R-97.9 miles 53°2017-05-03 06:39:34
Stations which heard PA0GRI-9 directly on radio –
callsign pkts first heard - EDT last heard longest (tx => rx) longest at - EDT
PI1APA 5 2017-05-18 05:41:14 2017-05-18 07:11:11 JO32BB > JO22XE 10.1 miles 336° 2017-05-18 05:41:14
PE1MEW-10 4 2017-05-18 05:48:41 2017-05-18 07:11:08 JO32AB > JO22XF 10.7 miles 337° 2017-05-18 07:11:08
PD4U-12 5 2017-05-18 05:21:23 2017-05-18 05:48:40 JO31AX > JO22XE 14.7 miles 346° 2017-05-18 05:21:23
PI1KAN-2 16 2017-05-18 04:27:22 2017-05-18 05:35:40 JO21SO > JO21WV 23.4 miles 38° 2017-05-18 04:27:22
PI1SGM-2 27 2017-05-18 04:58:19 2017-05-18 07:05:04 JO21VV > JO32HA 37.0 miles 76° 2017-05-18 04:58:19
PD2RLD-3 2 2017-05-18 04:43:28 2017-05-18 04:48:42 JO21TS > JO21RV 13.0 miles 319° 2017-05-18 04:43:28
PE1MIX-10 7 2017-05-18 04:12:13 2017-05-18 04:23:05 JO21RN > JO21QM 6.6 miles 223° 2017-05-18 04:23:05
PE1RDP-10 2 2017-05-18 04:15:57 2017-05-18 04:22:25 JO21RN > JO21QK 9.5 miles 203° 2017-05-18 04:22:25
DB1AN 3 2017-05-18 05:02:51 2017-05-18 05:23:49 JO21VX > JO31DP 32.3 miles 133° 2017-05-18 05:02:51
PE0FK-10 4 2017-05-18 04:19:34 2017-05-18 04:33:11 JO21SO > JO21WI 25.5 miles 139° 2017-05-18 04:27:43
PI1ANH-2 18 2017-05-18 04:48:21 2017-05-18 05:29:37 JO21UT > JO21WX 14.4 miles 29° 2017-05-18 04:48:21
PI1SHB 30 2017-05-18 04:15:38 2017-05-18 05:02:56 JO21VX > JO21QQ 25.7 miles 225° 2017-05-18 05:02:56
PI1SHB-1 13 2017-05-18 04:27:21 2017-05-18 04:55:07 JO21UV > JO21QQ 20.6 miles 234° 2017-05-18 04:55:07
DB0KV-10 9 2017-05-18 04:58:39 2017-05-18 05:32:32 JO21VX > JO31BS 19.2 miles 130° 2017-05-18 05:02:51
PH0TV-10 4 2017-05-18 05:32:34 2017-05-18 05:47:11 JO32BA > JO32CG 16.9 miles 18° 2017-05-18 05:32:34
PD0SBH-10 3 2017-05-18 04:18:51 2017-05-18 04:20:53 JO21RN > JO21RL 4.4 miles 183° 2017-05-18 04:20:53
PI1SHB-2 17 2017-05-18 04:25:28 2017-05-18 04:55:07 JO21UV > JO21QQ 20.6 miles 234° 2017-05-18 04:55:07
PA3GSH-10 3 2017-05-18 05:15:11 2017-05-18 05:35:11 JO32BA > JO31AU 12.8 miles 197° 2017-05-18 05:35:11
PI1GPS-10 10 2017-05-18 04:12:14 2017-05-18 04:32:04 JO21SP > JO21OI 24.7 miles 218° 2017-05-18 04:32:04
PH3J 5 2017-05-18 04:54:57 2017-05-18 05:19:39 JO21UV > JO21WX 10.1 miles 44° 2017-05-18 04:54:57
PD7DNS-10 1 2017-05-18 04:27:59 2017-05-18 04:27:59 JO21SO > JO21RI 18.7 miles 186° 2017-05-18 04:27:59

Only position packets which were originated by the station are shown here. The range statistics show some extra long hops, because some digipeaters do not correctly add themselves to the digipeater path. Please check the raw packets.
About this site
This page shows real-time information collected from the Automatic Position Reporting System Internet network (APRS-IS). APRS is used by amateur (ham) radio operators to transmit real-time position information, weather data, telemetry and messages over the radio. A vehicle equipped with a GPS receiver, a VHF transmitter or HF transceiver and a small computer device called a tracker transmits it's location, speed and course in a small data packet, which is then received by a nearby iGate receiving site which forwards the packet on the Internet. Systems connected to the Internet can send information on the APRS-IS without a radio transmitter, or collect and display information transmitted anywhere in the world.
FAQ · Blog · Discussion group · Linking to aprs.fi · AIS sites · Service status · Database statistics · Advertising on aprs.fi · Technical details · API · Change log · Planned changes · Credits and thanks · Terms Of Service · iPhone/iPad APRS